createdAt,value
2019-05-16T16:59:29.511Z,11.20
2019-05-16T17:47:52.824Z,10.50
2019-05-16T17:53:02.832Z,10.60
2019-05-16T17:55:36.873Z,10.70
2019-05-16T17:58:10.034Z,10.60
2019-05-16T18:00:47.182Z,10.60
2019-05-16T18:03:17.715Z,10.70
2019-05-16T18:05:51.862Z,10.60
2019-05-16T18:08:24.192Z,10.50
2019-05-16T18:10:56.544Z,10.50
2019-05-16T18:13:27.968Z,10.40
2019-05-16T18:16:00.856Z,10.10
2019-05-16T18:18:33.268Z,10.40
2019-05-16T18:21:06.690Z,10.40
2019-05-16T18:23:39.867Z,10.50
2019-05-16T18:26:12.387Z,10.30
2019-05-16T18:28:46.705Z,10.30
2019-05-16T18:31:19.943Z,10.10
2019-05-16T18:33:49.714Z,10.30
2019-05-16T18:36:22.090Z,10.30
2019-05-16T18:38:51.945Z,10.30
2019-05-16T18:41:27.343Z,10.30
2019-05-16T18:44:00.082Z,10.30
2019-05-16T18:46:32.544Z,10.40
2019-05-16T18:49:02.837Z,10.30
2019-05-16T18:51:57.006Z,10.30
2019-05-16T18:54:31.061Z,10.50
2019-05-16T18:57:03.895Z,10.30
2019-05-16T18:59:36.848Z,10.30
2019-05-16T19:02:10.404Z,10.30
2019-05-16T19:04:43.130Z,10.30
2019-05-16T19:07:13.221Z,10.30
2019-05-16T19:09:44.895Z,10.40
2019-05-16T19:12:17.535Z,10.30
2019-05-16T19:14:47.710Z,10.40
2019-05-16T19:17:30.181Z,10.40
2019-05-16T19:20:03.678Z,10.10
2019-05-16T19:25:07.275Z,10.50
2019-05-16T19:27:40.184Z,10.10
2019-05-16T19:30:16.298Z,10.30
2019-05-16T19:32:49.204Z,10.20
2019-05-16T19:35:21.767Z,10.30
2019-05-16T19:37:52.109Z,10.30
2019-05-16T19:40:25.789Z,10.20
2019-05-16T19:42:57.832Z,10.30
2019-05-16T19:45:30.338Z,10.20
2019-05-16T19:48:22.323Z,10.20
2019-05-16T19:50:52.354Z,10.20
2019-05-16T19:53:22.225Z,10.00
2019-05-16T19:55:52.392Z,10.00
2019-05-16T19:58:26.615Z,9.80
2019-05-16T20:00:59.021Z,9.80
2019-05-16T20:03:28.838Z,9.80
2019-05-16T20:06:01.296Z,9.80
2019-05-16T20:08:33.489Z,10.00
2019-05-16T20:11:03.514Z,9.70
2019-05-16T20:18:40.364Z,9.60
2019-05-16T20:21:10.559Z,9.80
2019-05-16T20:23:40.404Z,9.70
2019-05-16T20:26:10.419Z,9.70
2019-05-16T20:31:10.012Z,9.70
2019-05-16T20:38:40.640Z,9.40
2019-05-16T20:41:10.536Z,9.50
2019-05-16T20:51:09.548Z,9.50
2019-05-16T20:53:39.858Z,10.00
2019-05-16T21:06:08.723Z,9.30
2019-05-16T21:18:38.716Z,9.30
2019-05-16T21:21:08.704Z,9.50
2019-05-16T21:23:39.965Z,9.50
2019-05-16T21:28:40.485Z,9.40
2019-05-16T21:31:10.502Z,9.50
2019-05-16T21:53:37.903Z,9.50
2019-05-16T21:56:08.153Z,9.70
2019-05-16T21:58:38.123Z,9.60
2019-05-16T22:01:11.514Z,9.70
2019-05-16T22:03:41.575Z,9.80
2019-05-16T22:06:11.539Z,9.50
2019-05-16T22:08:41.593Z,9.60
2019-05-16T22:11:11.789Z,9.70
2019-05-16T22:13:42.281Z,9.50
2019-05-16T22:16:12.216Z,9.50
2019-05-16T22:18:42.633Z,9.30
2019-05-16T22:21:13.675Z,9.40
2019-05-16T22:23:43.736Z,9.40
2019-05-16T22:26:13.806Z,9.50
2019-05-16T22:28:46.752Z,9.30
2019-05-16T22:31:16.730Z,9.40
2019-05-16T22:33:47.033Z,9.40
2019-05-16T22:36:17.481Z,9.40
2019-05-16T22:38:47.424Z,9.40
2019-05-16T22:41:17.457Z,9.30
2019-05-16T22:43:47.786Z,9.30
2019-05-16T22:46:18.017Z,9.30
2019-05-16T22:48:48.230Z,9.30
2019-05-16T22:51:18.444Z,9.30
2019-05-16T22:53:50.837Z,9.40
2019-05-16T22:56:20.609Z,9.30
2019-05-16T22:58:50.517Z,9.30
2019-05-16T23:01:20.601Z,9.30
2019-05-16T23:03:50.578Z,9.30
2019-05-16T23:06:20.341Z,9.40
2019-05-16T23:08:50.100Z,9.40
2019-05-16T23:11:20.000Z,9.40
2019-05-16T23:13:50.608Z,9.30
2019-05-16T23:16:20.953Z,9.40
2019-05-16T23:18:51.140Z,9.30
2019-05-16T23:21:21.217Z,9.40
2019-05-16T23:23:51.570Z,9.00
2019-05-16T23:26:21.161Z,9.30
2019-05-16T23:28:51.477Z,9.30
2019-05-16T23:31:21.557Z,9.30
2019-05-16T23:33:51.758Z,9.40
2019-05-16T23:36:22.090Z,9.40
2019-05-16T23:38:52.124Z,9.40
2019-05-16T23:41:22.128Z,9.40
2019-05-16T23:43:52.154Z,9.20
2019-05-16T23:46:22.229Z,9.00
2019-05-16T23:48:52.204Z,9.30
2019-05-16T23:51:22.174Z,9.30
2019-05-16T23:53:52.260Z,9.40
2019-05-16T23:56:31.993Z,9.40
2019-05-16T23:59:01.852Z,9.40
